William P Hobby Airport
KHOU : now visible

Airfield :











YOU CAN JOIN US ON...

 
LOGIN :

Register | Disclaimer

   EN    FR    IT 

 









Legend :    VFR   Marginal VFR   IFR   Intensive IFR   Very Intensive IFR
Visi :
Ceiling :
>= 8 km
>= 3000ft
5 to 8 km
1000 to 3000 ft
1500m to 5 km
500 to 1000 ft
800 to 1500m
200 to 500 ft
< 800m
< 200 ft
Symbols :   Thunderstorms  Fog  Heavy snow  Heavy precipitations  Wind > 20 kt






- Airport Elevation : 46 ft
- IATA code : HOU


KHOU - William P Hobby

CURRENT METAR :
  • 232315Z 28007KT 4SM -TSRA SCT014 BKN018 OVC031CB 22/19 A2989 RMK AO2 LTG DSNT N AND SE AND S OCNL LTGICCG ALQDS TS ALQDS MOV N P0011 T02170189

EXPIRED METARs :
  • 232310Z 28007KT 1 1/4SM TSRA SCT014 BKN018 OVC031CB 22/19 A2990 RMK AO2 LTG DSNT N AND SE AND S OCNL LTGICCG ALQDS TS ALQDS MOV N P0011 T02170189
  • 232253Z 28007G21KT 5SM TSRA BKN015 BKN026CB BKN055 OVC250 22/19 A2989 RMK AO2 LTG DSNT N AND S AND SW RAB03 SLP127 OCNL LTGICCG ALQDS TS ALQDS MOV N P0008 T02220194
  • 232153Z 34006KT 10SM TS BKN027CB BKN095 BKN250 25/21 A2986 RMK AO2 LTG DSNT E-SW RAB02E14 SLP117 OCNL LTGICCC ALQDS TS ALQDS MOV N P0001 T02500206
  • 232136Z 33003KT 10SM TS BKN029CB BKN050 BKN095 BKN250 25/20 A2987 RMK AO2 LTG DSNT ALQDS RAB02E14 OCNL LTGICCC ALQDS TS ALQDS MOV N P0001 T02500200
  • 232053Z 32005KT 10SM TS BKN034CB BKN100 OVC250 27/21 A2987 RMK AO2 LTG DSNT W RAB11E26 TSB31 SLP120 OCNL LTGICCG SW-NW-N TS SW-NW-N MOV N P0004 60004 T02670211 56012

TAF KHOU
Valid from the 24 at 00:00 until the 25 at 00:00 UTC


232320Z 2400/2424 VRB06KT P6SM VCSH SCT027 BKN090
TEMPO 2400/2401 VRB15G25KT 5SM TSRA BR BKN015 BKN026CB
FM240300 15005KT P6SM FEW020 SCT250
FM241500 18007KT P6SM BKN020
FM241700 18009KT P6SM BKN035
KZHU FIR / North America



MET'MAP, your aeronautical weather chart ! - Copyright ORBIFLY December 2007 - Disclaimer

ORBIFLY MET'MAP TEAM :

Programming & Development : Alexandra Zaïnal
Concept & original design : Baudouin d'Aumeries
Assistance for programming : Marc-Olivier Méhu
Technical & hardware support : Manuel Goepfert

Contact : metmap@orbifly.com




SOURCES & CREDITS :

   NOAA       Earth
Advisory